Time;durP1;ratioP1;P1;durP2;ratioP2;P2;SDS_P1;SDS_P2;PMS_P1;PMS_P2;Temp;Humidity;BMP_temperature;BMP_pressure;BME280_temperature;BME280_humidity;BME280_pressure;Samples;Min_cycle;Max_cycle;Signal;HPM_P1;HPM_P2
2022/09/03 00:01:02;;;;;;;7.28;4.55;;;;;;;21.02;67.91;100430.72;7381128;19;20133;-66
2022/09/03 00:03:42;;;;;;;7.30;4.72;;;;;;;20.99;67.75;100428.47;7375639;19;20013;-66
2022/09/03 00:06:18;;;;;;;10.48;6.00;;;;;;;20.98;67.94;100428.72;7376184;19;20589;-66
2022/09/03 00:09:26;;;;;;;9.43;6.28;;;;;;;20.96;68.25;100434.31;7379543;19;20579;-67
2022/09/03 00:12:14;;;;;;;14.10;7.53;;;;;;;20.94;68.46;100425.69;7378585;19;20078;-66
2022/09/03 00:14:50;;;;;;;10.43;6.78;;;;;;;20.89;68.96;100421.03;7379164;19;20010;-67
2022/09/03 00:17:23;;;;;;;12.73;7.35;;;;;;;20.85;69.25;100414.50;7380825;19;20023;-66
2022/09/03 00:20:21;;;;;;;11.38;6.65;;;;;;;20.81;69.95;100410.66;7376762;19;20015;-67
2022/09/03 00:22:52;;;;;;;12.68;7.05;;;;;;;20.82;70.89;100406.97;7377993;19;20010;-67
2022/09/03 00:25:32;;;;;;;15.02;8.75;;;;;;;20.80;70.29;100405.53;7379699;19;20046;-67
2022/09/03 00:28:03;;;;;;;12.15;7.68;;;;;;;20.79;70.88;100401.22;7375372;19;20018;-66
2022/09/03 00:30:32;;;;;;;14.57;8.82;;;;;;;20.75;70.65;100400.88;7379569;19;20234;-67
2022/09/03 00:33:09;;;;;;;10.95;8.18;;;;;;;20.73;70.93;100394.94;7380453;19;20030;-66
2022/09/03 00:35:48;;;;;;;12.18;8.40;;;;;;;20.73;71.24;100388.78;7377831;19;20100;-66
2022/09/03 00:38:15;;;;;;;15.52;9.90;;;;;;;20.72;71.76;100387.97;7377622;19;20115;-66
2022/09/03 00:40:58;;;;;;;13.13;9.07;;;;;;;20.72;71.45;100395.19;7380188;19;20014;-68
2022/09/03 00:43:37;;;;;;;13.13;8.80;;;;;;;20.70;72.05;100394.59;7380995;19;20672;-67
2022/09/03 00:46:08;;;;;;;15.32;8.82;;;;;;;20.67;72.56;100392.38;7381871;19;20022;-67
2022/09/03 00:48:54;;;;;;;16.48;9.32;;;;;;;20.65;72.58;100381.91;7380266;19;20021;-67
2022/09/03 00:51:38;;;;;;;13.63;9.52;;;;;;;20.63;72.40;100385.84;7370136;19;20007;-66
2022/09/03 00:54:29;;;;;;;12.77;9.32;;;;;;;20.61;72.91;100387.94;7377855;19;20047;-66
2022/09/03 00:57:24;;;;;;;16.63;12.00;;;;;;;20.57;73.03;100387.56;7376113;19;20014;-67
2022/09/03 00:59:56;;;;;;;13.60;9.68;;;;;;;20.56;72.66;100385.97;7375500;19;20014;-66
2022/09/03 01:02:56;;;;;;;17.47;10.70;;;;;;;20.55;72.51;100384.34;7378606;19;20103;-66
2022/09/03 01:05:30;;;;;;;18.60;10.80;;;;;;;20.55;72.39;100386.19;7370131;19;20016;-67
2022/09/03 01:08:07;;;;;;;16.92;10.27;;;;;;;20.54;72.73;100388.03;7379414;19;20017;-66
2022/09/03 01:10:55;;;;;;;17.65;10.48;;;;;;;20.53;73.10;100389.06;7383651;19;20493;-66
2022/09/03 01:13:44;;;;;;;16.25;10.55;;;;;;;20.49;73.29;100385.25;7385855;19;20018;-67
2022/09/03 01:16:14;;;;;;;14.15;9.93;;;;;;;20.48;73.93;100380.94;7386934;19;20010;-66
2022/09/03 01:18:55;;;;;;;15.70;10.68;;;;;;;20.45;73.95;100382.22;7382547;19;20661;-66
2022/09/03 01:21:42;;;;;;;15.10;10.30;;;;;;;20.44;73.97;100380.59;7385743;19;20014;-66
2022/09/03 01:24:57;;;;;;;17.77;10.57;;;;;;;20.42;74.19;100376.50;7381055;19;20023;-67
2022/09/03 01:27:43;;;;;;;15.73;10.80;;;;;;;20.38;74.45;100380.66;7382904;19;20018;-67
2022/09/03 01:30:17;;;;;;;16.85;11.02;;;;;;;20.37;75.07;100382.53;7379387;19;20025;-66
2022/09/03 01:33:25;;;;;;;16.85;11.73;;;;;;;20.39;75.02;100371.63;7383574;19;20014;-66
2022/09/03 01:35:57;;;;;;;18.23;11.90;;;;;;;20.38;75.62;100368.13;7382091;19;20014;-67
2022/09/03 01:39:00;;;;;;;17.90;11.38;;;;;;;20.38;74.91;100365.44;7382777;19;20014;-66
2022/09/03 01:45:06;;;;;;;19.48;12.55;;;;;;;20.38;74.89;100369.97;7384323;19;20082;-67
2022/09/03 01:47:48;;;;;;;18.23;12.05;;;;;;;20.37;75.52;100365.66;7385302;19;20018;-64
2022/09/03 01:50:39;;;;;;;22.08;13.25;;;;;;;20.37;75.46;100368.34;7382329;19;20042;-65
2022/09/03 01:53:31;;;;;;;18.77;12.15;;;;;;;20.36;76.18;100375.56;7385622;19;20018;-67
2022/09/03 01:56:16;;;;;;;21.45;12.93;;;;;;;20.36;76.33;100366.75;7383462;19;20021;-67
2022/09/03 01:58:47;;;;;;;19.98;12.43;;;;;;;20.35;76.10;100365.91;7381861;19;20647;-67
2022/09/03 02:01:25;;;;;;;20.60;14.13;;;;;;;20.36;76.08;100370.22;7385672;19;20279;-67
2022/09/03 02:03:58;;;;;;;20.00;15.15;;;;;;;20.34;76.14;100372.31;7381228;19;20637;-66
2022/09/03 02:06:30;;;;;;;;;;;;;;;20.35;76.65;100375.78;7379644;19;20368;-66
2022/09/03 02:08:57;;;;;;;21.70;14.98;;;;;;;20.33;77.25;100372.53;7384310;19;20359;-67
2022/09/03 02:11:25;;;;;;;25.05;15.45;;;;;;;20.32;76.63;100365.53;7383994;19;20018;-66
2022/09/03 02:13:58;;;;;;;27.52;16.98;;;;;;;20.31;77.20;100371.94;7383140;19;20050;-67
2022/09/03 02:16:31;;;;;;;24.10;16.13;;;;;;;20.32;77.49;100373.56;7383840;19;20018;-66
2022/09/03 02:19:02;;;;;;;26.85;16.63;;;;;;;20.33;77.62;100372.53;7380980;19;20014;-67
2022/09/03 02:21:35;;;;;;;25.58;15.98;;;;;;;20.34;77.58;100369.63;7381103;19;20007;-66
2022/09/03 02:24:03;;;;;;;22.25;16.48;;;;;;;20.34;77.48;100374.16;7384145;19;20022;-65
2022/09/03 02:26:30;;;;;;;26.30;16.15;;;;;;;20.33;77.78;100373.34;7383587;19;20015;-66
2022/09/03 02:29:00;;;;;;;22.15;16.30;;;;;;;20.34;77.63;100384.84;7381871;19;20730;-66
2022/09/03 02:31:27;;;;;;;23.38;16.02;;;;;;;20.35;78.22;100381.13;7383170;19;20491;-64
2022/09/03 02:33:56;;;;;;;23.80;15.93;;;;;;;20.35;78.50;100383.81;7383698;19;20090;-64
2022/09/03 02:36:39;;;;;;;27.88;17.85;;;;;;;20.34;78.48;100392.88;7382105;19;21128;-65
2022/09/03 02:39:06;;;;;;;29.45;19.02;;;;;;;20.35;78.37;100394.50;7380265;19;20030;-63
2022/09/03 02:41:33;;;;;;;24.92;17.17;;;;;;;20.35;78.10;100395.31;7383693;19;20037;-66
2022/09/03 02:44:15;;;;;;;26.05;18.48;;;;;;;20.35;77.96;100395.31;7382292;19;20427;-65
2022/09/03 02:46:54;;;;;;;27.45;17.75;;;;;;;20.32;78.26;100401.09;7383794;19;20011;-66
2022/09/03 02:49:21;;;;;;;26.77;18.50;;;;;;;20.32;78.59;100394.94;7381055;19;20026;-66
2022/09/03 02:51:48;;;;;;;31.23;18.48;;;;;;;20.30;79.07;100407.69;7384738;19;20529;-65
2022/09/03 02:54:15;;;;;;;26.40;17.77;;;;;;;20.30;79.45;100399.69;7380823;19;20561;-65
2022/09/03 02:56:48;;;;;;;30.65;18.38;;;;;;;20.31;79.37;100409.38;7384280;19;20543;-66
2022/09/03 02:59:16;;;;;;;27.15;18.02;;;;;;;20.28;79.34;100405.25;7382097;19;20021;-66
2022/09/03 03:01:43;;;;;;;26.48;17.92;;;;;;;20.27;79.37;100398.25;7383701;19;20085;-66
2022/09/03 03:04:12;;;;;;;26.95;17.60;;;;;;;20.28;79.63;100394.56;7380091;19;20051;-66
2022/09/03 03:06:39;;;;;;;26.40;18.73;;;;;;;20.30;80.01;100392.47;7378461;19;20460;-67
2022/09/03 03:09:07;;;;;;;26.33;18.52;;;;;;;20.31;80.10;100396.81;7378622;19;20023;-66
2022/09/03 03:11:35;;;;;;;30.00;19.33;;;;;;;20.32;80.52;100392.25;7381230;19;20471;-65
2022/09/03 03:14:02;;;;;;;29.58;17.73;;;;;;;20.32;80.24;100394.94;7382767;19;20015;-65
2022/09/03 03:16:29;;;;;;;26.45;17.63;;;;;;;20.33;80.06;100394.72;7382935;19;20015;-65
2022/09/03 03:18:57;;;;;;;25.60;17.90;;;;;;;20.29;80.05;100390.84;7382935;19;20042;-66
2022/09/03 03:21:24;;;;;;;26.48;17.38;;;;;;;20.27;80.02;100389.44;7381030;19;20078;-66
2022/09/03 03:23:50;;;;;;;26.70;17.30;;;;;;;20.26;80.17;100385.97;7384158;19;20015;-67
2022/09/03 03:26:20;;;;;;;27.80;17.17;;;;;;;20.24;80.11;100372.00;7383376;19;20357;-66
2022/09/03 03:28:48;;;;;;;26.83;17.92;;;;;;;20.24;80.77;100382.69;7380524;19;20025;-65
2022/09/03 03:31:19;;;;;;;32.00;19.27;;;;;;;20.23;80.84;100386.41;7383869;19;20366;-66
2022/09/03 03:33:58;;;;;;;28.38;17.88;;;;;;;20.23;80.75;100366.88;7378986;19;20046;-66
2022/09/03 03:36:28;;;;;;;25.95;17.00;;;;;;;20.22;80.94;100368.72;7379700;19;20026;-67
2022/09/03 03:38:57;;;;;;;25.63;16.15;;;;;;;20.21;80.46;100360.97;7378608;19;20018;-66
2022/09/03 03:41:32;;;;;;;24.90;16.58;;;;;;;20.21;80.66;100366.31;7380004;19;20102;-65
2022/09/03 03:44:02;;;;;;;23.58;15.95;;;;;;;20.18;80.44;100364.06;7381273;19;20018;-66
2022/09/03 03:46:49;;;;;;;26.55;17.50;;;;;;;20.18;81.57;100366.75;7383289;19;20547;-66
2022/09/03 03:49:16;;;;;;;22.45;14.88;;;;;;;20.13;81.39;100364.75;7378261;19;20558;-65
2022/09/03 03:51:46;;;;;;;23.35;15.00;;;;;;;20.13;81.61;100369.28;7383835;19;20329;-66
2022/09/03 03:54:13;;;;;;;24.98;15.15;;;;;;;20.13;81.29;100371.94;7380560;19;20014;-67
2022/09/03 03:56:43;;;;;;;26.05;15.40;;;;;;;20.11;81.67;100376.72;7382944;19;20373;-66
2022/09/03 03:59:16;;;;;;;26.63;16.23;;;;;;;20.08;81.57;100373.44;7374757;19;20014;-66
2022/09/03 04:01:43;;;;;;;22.15;15.10;;;;;;;20.07;81.59;100363.81;7381265;19;20346;-66
2022/09/03 04:04:10;;;;;;;25.10;17.35;;;;;;;20.08;82.38;100356.59;7377813;19;20015;-66
2022/09/03 04:06:36;;;;;;;25.55;16.40;;;;;;;20.10;82.12;100346.53;7374540;19;20018;-66
2022/09/03 04:09:03;;;;;;;22.55;15.57;;;;;;;20.11;81.86;100363.38;7377295;19;20022;-66
2022/09/03 04:11:30;;;;;;;21.05;13.68;;;;;;;20.10;82.00;100357.22;7380733;19;20126;-66
2022/09/03 04:13:57;;;;;;;24.33;14.27;;;;;;;20.11;81.90;100364.19;7381677;19;20565;-65
2022/09/03 04:16:27;;;;;;;21.48;14.00;;;;;;;20.12;81.90;100362.31;7380203;19;20019;-64
2022/09/03 04:18:55;;;;;;;20.35;14.18;;;;;;;20.12;82.02;100365.78;7379700;19;20015;-66
2022/09/03 04:21:27;;;;;;;20.55;15.10;;;;;;;20.12;81.72;100354.28;7377522;19;20409;-66
2022/09/03 04:23:55;;;;;;;24.30;15.77;;;;;;;20.12;82.45;100368.47;7380153;19;20014;-66
2022/09/03 04:26:24;;;;;;;22.58;14.68;;;;;;;20.13;82.22;100356.75;7378561;19;20279;-66
2022/09/03 04:28:51;;;;;;;22.35;14.50;;;;;;;20.17;82.30;100354.41;7383401;19;20487;-66
2022/09/03 04:31:19;;;;;;;21.45;15.57;;;;;;;20.18;81.91;100354.19;7379004;19;20018;-67
2022/09/03 04:33:46;;;;;;;28.83;17.58;;;;;;;20.17;82.32;100349.06;7380968;19;20019;-66
2022/09/03 04:36:16;;;;;;;26.98;17.05;;;;;;;20.16;82.04;100347.47;7379395;19;20029;-66
2022/09/03 04:38:45;;;;;;;29.42;19.02;;;;;;;20.14;82.49;100346.88;7377259;19;20007;-64
2022/09/03 04:41:23;;;;;;;28.63;19.25;;;;;;;20.16;83.58;100347.47;7377926;19;20022;-67
2022/09/03 04:43:51;;;;;;;33.10;21.38;;;;;;;20.14;82.80;100346.88;7378915;19;20481;-66
2022/09/03 04:46:20;;;;;;;29.98;19.38;;;;;;;20.14;82.97;100339.66;7386764;19;20105;-67
2022/09/03 04:48:51;;;;;;;30.95;19.23;;;;;;;20.14;82.98;100346.88;7385995;19;20042;-66
2022/09/03 04:51:23;;;;;;;29.13;20.13;;;;;;;20.13;82.66;100362.09;7385706;19;20475;-66
2022/09/03 04:53:55;;;;;;;28.90;18.65;;;;;;;20.14;82.81;100358.38;7387067;19;20533;-66
2022/09/03 04:56:25;;;;;;;29.85;18.58;;;;;;;20.14;83.18;100354.88;7389294;19;20026;-66
2022/09/03 04:58:55;;;;;;;27.88;18.67;;;;;;;20.13;83.53;100354.06;7383846;19;20681;-64
2022/09/03 05:01:25;;;;;;;30.23;18.85;;;;;;;20.14;83.41;100353.03;7387369;19;20019;-65
2022/09/03 05:03:54;;;;;;;28.45;19.20;;;;;;;20.14;83.06;100355.69;7389643;19;20082;-66
2022/09/03 05:06:21;;;;;;;29.38;17.92;;;;;;;20.15;83.05;100356.53;7385475;19;20408;-65
2022/09/03 05:08:49;;;;;;;31.35;19.38;;;;;;;20.11;82.86;100360.69;7382476;19;20077;-65
2022/09/03 05:11:16;;;;;;;34.13;18.52;;;;;;;20.08;83.53;100365.44;7385560;19;20372;-66
2022/09/03 05:13:47;;;;;;;31.13;18.80;;;;;;;20.07;83.91;100360.31;7384551;19;20018;-65
2022/09/03 05:16:15;;;;;;;37.70;23.95;;;;;;;20.05;84.00;100362.41;7385906;19;20412;-65
2022/09/03 05:18:43;;;;;;;32.67;20.10;;;;;;;20.04;84.03;100363.44;7385300;19;20011;-67
2022/09/03 05:21:13;;;;;;;31.90;20.95;;;;;;;20.01;84.20;100359.34;7382991;19;20021;-65
2022/09/03 05:23:43;;;;;;;32.00;20.58;;;;;;;19.99;84.14;100356.13;7386211;19;20026;-66
2022/09/03 05:26:14;;;;;;;34.30;22.55;;;;;;;19.98;84.01;100359.00;7387447;19;20024;-65
2022/09/03 05:28:41;;;;;;;34.47;21.30;;;;;;;19.96;83.83;100359.22;7383829;19;20011;-67
2022/09/03 05:31:11;;;;;;;34.75;21.33;;;;;;;19.92;84.32;100360.72;7389436;19;20559;-66
2022/09/03 05:33:43;;;;;;;36.65;23.52;;;;;;;19.91;84.23;100356.41;7387284;19;20007;-66
2022/09/03 05:36:13;;;;;;;41.13;24.33;;;;;;;19.92;85.27;100357.22;7382645;19;20042;-66
2022/09/03 05:38:39;;;;;;;41.30;25.00;;;;;;;19.88;84.82;100356.06;7383988;19;20022;-66
2022/09/03 05:41:09;;;;;;;41.58;24.23;;;;;;;19.84;85.21;100354.88;7385090;19;20480;-66
2022/09/03 05:43:36;;;;;;;42.58;25.33;;;;;;;19.83;85.26;100351.38;7384635;19;20380;-66
2022/09/03 05:46:12;;;;;;;42.03;25.95;;;;;;;19.84;85.38;100360.22;7385003;19;20019;-66
2022/09/03 05:48:40;;;;;;;41.78;26.60;;;;;;;19.82;85.37;100365.78;7384228;19;20014;-66
2022/09/03 05:51:15;;;;;;;40.63;26.02;;;;;;;19.82;85.97;100352.44;7382269;19;20024;-65
2022/09/03 05:53:44;;;;;;;44.75;27.17;;;;;;;19.84;85.77;100361.03;7387985;19;20309;-65
2022/09/03 05:56:16;;;;;;;44.22;26.77;;;;;;;19.85;85.62;100353.84;7383960;19;20720;-65
2022/09/03 05:58:46;;;;;;;44.55;27.48;;;;;;;19.87;85.72;100370.44;7383350;19;20553;-65
2022/09/03 06:01:18;;;;;;;45.22;28.55;;;;;;;19.87;85.68;100362.44;7379577;19;20031;-65
2022/09/03 06:03:47;;;;;;;50.90;30.50;;;;;;;19.87;85.62;100360.56;7382657;19;20014;-64
2022/09/03 06:06:14;;;;;;;50.88;29.95;;;;;;;19.88;85.60;100362.22;7381454;19;20565;-66
2022/09/03 06:08:43;;;;;;;51.72;30.92;;;;;;;19.89;85.80;100360.34;7381898;19;20038;-64
2022/09/03 06:11:10;;;;;;;52.88;32.13;;;;;;;19.91;86.36;100368.97;7379791;19;20545;-65
2022/09/03 06:13:37;;;;;;;52.97;30.80;;;;;;;19.92;86.85;100368.72;7382463;19;20020;-65
2022/09/03 06:16:06;;;;;;;50.97;32.20;;;;;;;19.94;86.51;100369.34;7384331;19;20018;-65
2022/09/03 06:18:33;;;;;;;53.97;32.63;;;;;;;19.95;86.13;100380.84;7384535;19;20019;-65
2022/09/03 06:21:05;;;;;;;55.58;32.90;;;;;;;19.96;86.52;100379.81;7381895;19;20018;-65
2022/09/03 06:23:34;;;;;;;51.60;31.38;;;;;;;19.95;86.52;100378.97;7385232;19;20077;-65
2022/09/03 06:26:12;;;;;;;53.70;32.83;;;;;;;19.96;86.95;100380.59;7383914;19;20500;-65
2022/09/03 06:28:42;;;;;;;57.97;37.10;;;;;;;19.97;86.91;100382.22;7384521;19;20456;-65
2022/09/03 06:31:14;;;;;;;57.47;34.30;;;;;;;20.00;87.90;100376.44;7386180;19;20014;-67
2022/09/03 06:33:41;;;;;;;48.60;32.53;;;;;;;20.00;87.21;100379.13;7384559;19;20055;-64
2022/09/03 06:36:12;;;;;;;55.00;32.55;;;;;;;20.01;86.92;100378.06;7381358;19;20022;-64
2022/09/03 06:38:39;;;;;;;49.42;30.13;;;;;;;20.03;86.81;100377.84;7382705;19;20054;-65
2022/09/03 06:41:20;;;;;;;47.45;29.80;;;;;;;20.04;86.78;100374.94;7381629;19;20022;-64
2022/09/03 06:43:48;;;;;;;49.30;31.55;;;;;;;20.08;86.70;100384.13;7381281;19;20235;-64
2022/09/03 06:46:17;;;;;;;51.17;32.40;;;;;;;20.11;86.93;100387.41;7385111;19;20018;-66
2022/09/03 06:48:46;;;;;;;53.55;33.60;;;;;;;20.13;86.50;100390.66;7384050;19;20020;-66
2022/09/03 06:51:18;;;;;;;55.13;34.45;;;;;;;20.14;86.89;100381.59;7379901;19;20101;-66
2022/09/03 06:53:51;;;;;;;51.25;32.75;;;;;;;20.16;86.94;100385.69;7385062;19;20074;-64
2022/09/03 06:56:26;;;;;;;51.47;31.23;;;;;;;20.19;86.14;100393.25;7382268;19;20264;-65
2022/09/03 06:59:19;;;;;;;46.47;29.33;;;;;;;20.23;86.32;100388.25;7381093;19;20018;-65
2022/09/03 07:01:59;;;;;;;46.70;29.67;;;;;;;20.26;85.99;100391.31;7382061;19;20019;-66
2022/09/03 07:04:26;;;;;;;48.85;31.08;;;;;;;20.28;85.75;100399.09;7379027;19;20554;-66
2022/09/03 07:06:54;;;;;;;45.30;28.52;;;;;;;20.30;86.17;100400.50;7382901;19;20018;-66
2022/09/03 07:09:21;;;;;;;42.28;27.50;;;;;;;20.33;86.16;100405.41;7377257;19;20127;-66
2022/09/03 07:11:48;;;;;;;43.03;28.02;;;;;;;20.35;85.92;100398.00;7379113;19;20024;-66
2022/09/03 07:14:19;;;;;;;44.53;28.05;;;;;;;20.35;86.31;100391.81;7380646;19;20130;-66
2022/09/03 07:16:47;;;;;;;43.72;30.10;;;;;;;20.36;86.17;100388.13;7383444;19;20034;-66
2022/09/03 07:19:15;;;;;;;53.22;32.33;;;;;;;20.36;86.25;100394.28;7376799;19;20035;-66
2022/09/03 07:21:42;;;;;;;46.47;29.58;;;;;;;20.38;85.94;100397.53;7382664;19;20011;-65
2022/09/03 07:24:15;;;;;;;46.35;30.65;;;;;;;20.41;85.51;100399.75;7379762;19;20016;-66
2022/09/03 07:26:47;;;;;;;45.45;28.77;;;;;;;20.44;85.61;100393.94;7383309;19;20014;-66
2022/09/03 07:29:18;;;;;;;44.55;28.65;;;;;;;20.46;85.45;100407.91;7381832;19;20484;-67
2022/09/03 07:31:49;;;;;;;49.42;29.25;;;;;;;20.48;85.22;100399.66;7381852;19;20046;-66
2022/09/03 07:34:18;;;;;;;38.80;27.40;;;;;;;20.52;85.17;100406.16;7379429;19;20047;-68
2022/09/03 07:36:48;;;;;;;40.25;26.50;;;;;;;20.56;85.34;100403.88;7380983;19;20014;-67
2022/09/03 07:39:16;;;;;;;33.53;23.05;;;;;;;20.57;84.57;100406.28;7382619;19;20439;-66
2022/09/03 07:41:45;;;;;;;33.90;23.38;;;;;;;20.57;84.09;100406.28;7383281;19;20006;-66
2022/09/03 07:44:14;;;;;;;33.05;21.50;;;;;;;20.59;83.68;100403.41;7381077;19;20491;-66
2022/09/03 07:46:44;;;;;;;31.20;21.50;;;;;;;20.65;83.06;100403.31;7383540;19;20011;-64
2022/09/03 07:49:11;;;;;;;32.92;20.80;;;;;;;20.68;82.96;100410.84;7380042;19;20026;-66
2022/09/03 07:51:38;;;;;;;31.35;19.27;;;;;;;20.70;82.84;100414.13;7380621;19;20018;-65
2022/09/03 07:54:08;;;;;;;27.25;18.52;;;;;;;20.71;82.19;100415.75;7382034;19;20334;-64
2022/09/03 07:56:37;;;;;;;26.88;17.70;;;;;;;20.75;81.83;100414.25;7383593;19;20446;-64
2022/09/03 07:59:04;;;;;;;28.02;19.15;;;;;;;20.78;81.44;100419.13;7382260;19;20452;-66
2022/09/03 08:01:32;;;;;;;30.77;21.08;;;;;;;20.82;82.01;100414.97;7383146;19;20015;-65
2022/09/03 08:04:00;;;;;;;32.15;21.65;;;;;;;20.89;82.26;100422.88;7381636;19;20041;-67
2022/09/03 08:06:29;;;;;;;37.05;21.50;;;;;;;20.91;81.70;100426.97;7380611;19;20543;-65
2022/09/03 08:08:59;;;;;;;29.70;19.33;;;;;;;20.93;81.19;100432.88;7381479;19;20110;-66
2022/09/03 08:11:35;;;;;;;25.85;17.95;;;;;;;20.95;80.37;100418.47;7376231;19;20074;-66
2022/09/03 08:14:07;;;;;;;25.55;17.70;;;;;;;20.97;80.19;100427.09;7380740;19;20468;-66
2022/09/03 08:16:37;;;;;;;23.98;16.80;;;;;;;20.98;79.11;100429.50;7384394;19;20023;-67
2022/09/03 08:19:04;;;;;;;27.77;16.05;;;;;;;20.99;78.84;100436.50;7377021;19;20018;-65
2022/09/03 08:21:31;;;;;;;24.25;16.98;;;;;;;21.02;78.84;100436.06;7388625;19;20017;-67
2022/09/03 08:24:04;;;;;;;23.30;16.02;;;;;;;21.07;78.20;100440.72;7389036;19;20025;-67
2022/09/03 08:26:34;;;;;;;21.70;14.95;;;;;;;21.09;77.28;100439.44;7384754;19;20034;-66
2022/09/03 08:29:02;;;;;;;23.55;14.23;;;;;;;21.12;76.70;100444.34;7388634;19;20338;-67
2022/09/03 08:31:31;;;;;;;21.50;14.00;;;;;;;21.17;76.43;100447.16;7389862;19;20024;-67
2022/09/03 08:34:05;;;;;;;21.83;14.52;;;;;;;21.22;76.62;100446.47;7388214;19;20014;-66
2022/09/03 08:36:35;;;;;;;15.60;10.35;;;;;;;21.26;76.46;100442.28;7387379;19;20510;-66
2022/09/03 08:39:11;;;;;;;20.45;11.07;;;;;;;21.30;77.32;100444.25;7385443;19;20388;-65
2022/09/03 08:41:49;;;;;;;16.80;10.35;;;;;;;21.36;76.78;100439.81;7388113;19;20510;-66
2022/09/03 08:44:31;;;;;;;12.07;8.65;;;;;;;21.42;75.67;100444.25;7386410;19;20021;-63
2022/09/03 08:47:13;;;;;;;13.02;8.85;;;;;;;21.46;75.82;100444.59;7387222;19;20017;-68
2022/09/03 08:49:54;;;;;;;14.45;9.30;;;;;;;21.52;75.44;100444.47;7386053;19;20573;-64
2022/09/03 08:52:31;;;;;;;12.23;8.32;;;;;;;21.55;75.29;100443.19;7388706;19;20010;-64
2022/09/03 08:55:19;;;;;;;12.88;7.93;;;;;;;21.57;75.60;100452.63;7387518;19;20019;-64
2022/09/03 08:57:49;;;;;;;13.80;9.02;;;;;;;21.62;76.84;100457.28;7382328;19;20018;-66
2022/09/03 09:00:17;;;;;;;12.80;7.88;;;;;;;21.63;76.06;100461.59;7380212;19;20018;-64
2022/09/03 09:02:55;;;;;;;12.55;7.65;;;;;;;21.66;75.77;100461.94;7389092;19;20325;-65
2022/09/03 09:05:35;;;;;;;11.70;7.32;;;;;;;21.68;75.27;100462.53;7385541;19;20011;-63
2022/09/03 09:08:16;;;;;;;13.50;6.97;;;;;;;21.72;75.23;100462.88;7389356;19;20079;-64
2022/09/03 09:10:47;;;;;;;15.00;9.63;;;;;;;21.73;75.92;100457.28;7388226;19;20033;-64
2022/09/03 09:13:37;;;;;;;11.10;7.63;;;;;;;21.75;74.97;100459.69;7381806;19;20034;-64
2022/09/03 09:16:14;;;;;;;13.57;7.65;;;;;;;21.77;74.37;100445.03;7385537;19;20021;-65
2022/09/03 09:19:03;;;;;;;11.07;5.97;;;;;;;21.81;74.57;100448.06;7379804;19;20015;-65
2022/09/03 09:21:44;;;;;;;7.35;4.82;;;;;;;21.87;74.56;100448.97;7387144;19;20082;-63
2022/09/03 09:24:25;;;;;;;6.25;4.57;;;;;;;21.94;74.68;100449.69;7386673;19;20018;-64
2022/09/03 09:26:58;;;;;;;8.60;5.18;;;;;;;22.02;74.36;100457.38;7386566;19;20086;-65
2022/09/03 09:29:28;;;;;;;8.40;6.05;;;;;;;22.08;74.07;100453.75;7386705;19;20162;-64
2022/09/03 09:31:55;;;;;;;7.45;5.45;;;;;;;22.14;73.96;100455.47;7389007;19;20022;-63
2022/09/03 09:34:22;;;;;;;9.57;5.20;;;;;;;22.21;72.79;100450.78;7381620;19;20096;-64
2022/09/03 09:36:52;;;;;;;8.07;6.50;;;;;;;22.31;73.72;100453.66;7387960;19;20562;-64
2022/09/03 09:39:19;;;;;;;8.40;4.53;;;;;;;22.40;72.81;100459.47;7385826;19;20018;-64
2022/09/03 09:42:07;;;;;;;7.85;4.70;;;;;;;22.48;72.50;100461.75;7387203;19;20091;-65
2022/09/03 09:44:40;;;;;;;8.25;5.63;;;;;;;22.49;71.81;100455.34;7385524;19;20414;-64
2022/09/03 09:47:10;;;;;;;8.52;4.95;;;;;;;22.50;71.37;100463.13;7385939;19;20019;-64
2022/09/03 09:49:51;;;;;;;7.30;5.30;;;;;;;22.54;71.42;100458.94;7382804;19;20027;-64
2022/09/03 09:52:24;;;;;;;9.40;7.05;;;;;;;22.61;71.72;100458.75;7387874;19;20010;-64
2022/09/03 09:54:53;;;;;;;7.80;4.10;;;;;;;22.69;72.07;100449.53;7383117;19;20561;-66
2022/09/03 09:57:23;;;;;;;8.30;4.50;;;;;;;22.75;72.10;100456.66;7319533;19;20045;-65
2022/09/03 10:00:11;;;;;;;8.77;5.75;;;;;;;22.79;71.31;100452.41;7380572;19;20022;-64
2022/09/03 10:02:46;;;;;;;9.45;5.72;;;;;;;22.80;71.00;100462.91;7384917;19;20437;-65
2022/09/03 10:05:26;;;;;;;8.35;4.93;;;;;;;22.85;71.25;100456.81;7381319;19;20131;-64
2022/09/03 10:07:59;;;;;;;8.02;4.60;;;;;;;22.86;71.04;100458.41;7383787;19;20029;-64
2022/09/03 10:10:33;;;;;;;9.32;4.13;;;;;;;22.82;70.90;100465.34;7386359;19;20011;-66
2022/09/03 10:13:09;;;;;;;9.20;4.50;;;;;;;22.80;70.86;100462.09;7379560;19;20031;-65
2022/09/03 10:16:08;;;;;;;8.18;4.25;;;;;;;22.78;71.21;100464.19;7385207;19;20031;-66
2022/09/03 10:18:40;;;;;;;;;;;;;;;22.74;71.23;100453.16;7385109;19;20437;-64
2022/09/03 10:21:43;;;;;;;8.45;3.40;;;;;;;22.71;70.94;100456.28;7382375;19;20409;-66
2022/09/03 10:24:16;;;;;;;6.95;4.90;;;;;;;22.68;71.57;100455.94;7383626;19;20018;-64
2022/09/03 10:26:58;;;;;;;9.35;3.85;;;;;;;22.68;71.87;100454.06;7385013;19;20023;-65
2022/09/03 10:29:49;;;;;;;7.80;3.45;;;;;;;22.69;71.56;100444.97;7379662;19;20067;-65
2022/09/03 10:32:40;;;;;;;5.72;2.75;;;;;;;22.69;71.71;100450.34;7384532;19;20014;-67
2022/09/03 10:35:28;;;;;;;5.55;2.55;;;;;;;22.73;70.69;100448.81;7380139;19;20497;-66
2022/09/03 10:38:16;;;;;;;5.03;2.63;;;;;;;22.77;70.14;100449.16;7383724;19;20063;-65
2022/09/03 10:41:04;;;;;;;10.00;3.88;;;;;;;22.83;69.38;100451.69;7381528;19;20011;-67
2022/09/03 10:44:00;;;;;;;6.32;3.17;;;;;;;22.85;68.98;100456.81;7383400;19;20669;-66
2022/09/03 10:46:56;;;;;;;3.25;2.03;;;;;;;22.84;69.38;100456.00;7384359;19;20018;-65
2022/09/03 10:49:44;;;;;;;3.85;2.25;;;;;;;22.84;69.45;100455.19;7377587;19;20022;-66
2022/09/03 10:52:25;;;;;;;43.08;26.67;;;;;;;22.87;69.12;100454.69;7382905;19;20018;-65
2022/09/03 10:55:11;;;;;;;6.25;3.90;;;;;;;22.89;69.17;100456.09;7380489;19;20445;-66
2022/09/03 10:57:56;;;;;;;6.95;3.30;;;;;;;22.93;69.03;100443.00;7380694;19;20330;-64
2022/09/03 11:00:24;;;;;;;18.85;3.90;;;;;;;22.96;69.12;100455.91;7378218;19;20021;-66
2022/09/03 11:03:19;;;;;;;22.63;4.20;;;;;;;23.02;70.00;100460.31;7378956;19;20981;-65
2022/09/03 11:06:11;;;;;;;8.63;2.67;;;;;;;23.07;68.47;100449.66;7378457;19;20033;-65
2022/09/03 11:08:43;;;;;;;5.60;2.13;;;;;;;23.15;68.14;100453.81;7384462;19;20484;-65
2022/09/03 11:11:18;;;;;;;3.65;1.50;;;;;;;23.20;67.35;100449.34;7382870;19;20010;-65
2022/09/03 11:13:50;;;;;;;7.20;1.95;;;;;;;23.24;66.44;100450.47;7379986;19;20463;-64
2022/09/03 11:16:24;;;;;;;5.50;2.07;;;;;;;23.30;66.38;100454.88;7381709;19;20013;-65
2022/09/03 11:19:01;;;;;;;6.88;2.10;;;;;;;23.39;66.70;100449.88;7382593;19;20509;-66
2022/09/03 11:21:30;;;;;;;3.88;2.88;;;;;;;23.43;66.46;100449.16;7381952;19;20091;-65
2022/09/03 11:24:12;;;;;;;3.60;2.20;;;;;;;23.50;66.17;100456.25;7381000;19;20019;-64
2022/09/03 11:26:43;;;;;;;5.07;2.00;;;;;;;23.55;65.79;100451.78;7382632;19;20074;-65
2022/09/03 11:29:24;;;;;;;6.28;2.15;;;;;;;23.59;65.66;100441.34;7382004;19;20365;-65
2022/09/03 11:32:20;;;;;;;2.90;2.05;;;;;;;23.58;65.59;100447.75;7384010;19;20015;-66
2022/09/03 11:34:53;;;;;;;3.33;2.13;;;;;;;23.58;65.47;100447.75;7378131;19;20021;-65
2022/09/03 11:37:25;;;;;;;6.60;2.90;;;;;;;23.59;65.12;100434.09;7382896;19;20406;-64
2022/09/03 11:40:03;;;;;;;2.92;2.05;;;;;;;23.57;64.49;100443.47;7379955;19;20018;-64
2022/09/03 11:42:40;;;;;;;4.70;2.13;;;;;;;23.51;64.23;100434.53;7383574;19;20485;-64
2022/09/03 11:45:25;;;;;;;4.70;1.75;;;;;;;23.50;64.61;100443.63;7379321;19;20018;-66
2022/09/03 11:47:53;;;;;;;5.57;2.50;;;;;;;23.53;65.10;100436.94;7381723;19;20616;-66
2022/09/03 11:50:25;;;;;;;5.85;1.52;;;;;;;23.55;65.13;100437.53;7377598;19;20240;-66